sensor_id;sensor_type;location;lat;lon;timestamp;P1;durP1;ratioP1;P2;durP2;ratioP2
51238;SDS011;38154;47.548;18.828;2023-09-19T00:00:30;9.10;;;3.50;;
51238;SDS011;38154;47.548;18.828;2023-09-19T00:02:57;15.50;;;4.10;;
51238;SDS011;38154;47.548;18.828;2023-09-19T00:05:27;8.48;;;4.60;;
51238;SDS011;38154;47.548;18.828;2023-09-19T00:07:55;7.68;;;3.67;;
51238;SDS011;38154;47.548;18.828;2023-09-19T00:10:24;7.45;;;3.72;;
51238;SDS011;38154;47.548;18.828;2023-09-19T00:12:52;6.47;;;3.87;;
51238;SDS011;38154;47.548;18.828;2023-09-19T00:15:26;10.02;;;4.57;;
51238;SDS011;38154;47.548;18.828;2023-09-19T00:17:54;8.05;;;4.05;;
51238;SDS011;38154;47.548;18.828;2023-09-19T00:20:21;6.32;;;4.30;;
51238;SDS011;38154;47.548;18.828;2023-09-19T00:22:49;7.47;;;3.78;;
51238;SDS011;38154;47.548;18.828;2023-09-19T00:25:19;10.07;;;4.37;;
51238;SDS011;38154;47.548;18.828;2023-09-19T00:27:46;8.00;;;4.45;;
51238;SDS011;38154;47.548;18.828;2023-09-19T00:30:13;12.68;;;4.65;;
51238;SDS011;38154;47.548;18.828;2023-09-19T00:32:46;10.07;;;4.53;;
51238;SDS011;38154;47.548;18.828;2023-09-19T00:35:20;8.20;;;3.85;;
51238;SDS011;38154;47.548;18.828;2023-09-19T00:37:49;12.25;;;4.72;;
51238;SDS011;38154;47.548;18.828;2023-09-19T00:40:15;6.78;;;3.97;;
51238;SDS011;38154;47.548;18.828;2023-09-19T00:45:08;9.38;;;3.78;;
51238;SDS011;38154;47.548;18.828;2023-09-19T00:47:43;8.02;;;4.50;;
51238;SDS011;38154;47.548;18.828;2023-09-19T00:50:18;10.45;;;4.60;;
51238;SDS011;38154;47.548;18.828;2023-09-19T00:52:46;6.40;;;3.95;;
51238;SDS011;38154;47.548;18.828;2023-09-19T00:55:13;13.30;;;4.57;;
51238;SDS011;38154;47.548;18.828;2023-09-19T00:57:41;8.13;;;4.50;;
51238;SDS011;38154;47.548;18.828;2023-09-19T01:02:37;13.20;;;4.70;;
51238;SDS011;38154;47.548;18.828;2023-09-19T01:05:03;13.23;;;4.65;;
51238;SDS011;38154;47.548;18.828;2023-09-19T01:07:31;8.65;;;4.35;;
51238;SDS011;38154;47.548;18.828;2023-09-19T01:09:59;7.70;;;5.07;;
51238;SDS011;38154;47.548;18.828;2023-09-19T01:12:34;7.47;;;4.12;;
51238;SDS011;38154;47.548;18.828;2023-09-19T01:21:42;11.57;;;5.18;;
51238;SDS011;38154;47.548;18.828;2023-09-19T01:29:46;7.40;;;4.62;;
51238;SDS011;38154;47.548;18.828;2023-09-19T01:32:18;9.93;;;6.50;;
51238;SDS011;38154;47.548;18.828;2023-09-19T01:34:56;8.75;;;4.32;;
51238;SDS011;38154;47.548;18.828;2023-09-19T01:37:29;15.35;;;4.15;;
51238;SDS011;38154;47.548;18.828;2023-09-19T01:39:58;8.80;;;4.35;;
51238;SDS011;38154;47.548;18.828;2023-09-19T01:53:43;7.03;;;4.60;;
51238;SDS011;38154;47.548;18.828;2023-09-19T01:56:36;8.77;;;4.72;;
51238;SDS011;38154;47.548;18.828;2023-09-19T01:59:16;12.70;;;4.93;;
51238;SDS011;38154;47.548;18.828;2023-09-19T02:01:47;10.80;;;5.43;;
51238;SDS011;38154;47.548;18.828;2023-09-19T02:04:14;14.75;;;5.40;;
51238;SDS011;38154;47.548;18.828;2023-09-19T02:06:40;9.57;;;4.07;;
51238;SDS011;38154;47.548;18.828;2023-09-19T02:09:07;7.75;;;4.70;;
51238;SDS011;38154;47.548;18.828;2023-09-19T02:11:34;7.93;;;4.85;;
51238;SDS011;38154;47.548;18.828;2023-09-19T02:14:02;6.85;;;4.45;;
51238;SDS011;38154;47.548;18.828;2023-09-19T02:16:29;9.63;;;4.65;;
51238;SDS011;38154;47.548;18.828;2023-09-19T02:18:55;8.82;;;4.50;;
51238;SDS011;38154;47.548;18.828;2023-09-19T02:21:22;10.55;;;4.70;;
51238;SDS011;38154;47.548;18.828;2023-09-19T02:23:48;8.80;;;5.18;;
51238;SDS011;38154;47.548;18.828;2023-09-19T02:26:14;10.25;;;4.57;;
51238;SDS011;38154;47.548;18.828;2023-09-19T02:28:40;9.57;;;5.10;;
51238;SDS011;38154;47.548;18.828;2023-09-19T02:31:06;8.35;;;5.07;;
51238;SDS011;38154;47.548;18.828;2023-09-19T02:33:32;9.02;;;4.55;;
51238;SDS011;38154;47.548;18.828;2023-09-19T02:35:58;7.95;;;4.37;;
51238;SDS011;38154;47.548;18.828;2023-09-19T02:38:25;12.63;;;4.90;;
51238;SDS011;38154;47.548;18.828;2023-09-19T02:40:52;10.18;;;5.30;;
51238;SDS011;38154;47.548;18.828;2023-09-19T02:43:18;14.07;;;5.12;;
51238;SDS011;38154;47.548;18.828;2023-09-19T02:45:47;8.93;;;5.12;;
51238;SDS011;38154;47.548;18.828;2023-09-19T02:48:18;12.20;;;5.07;;
51238;SDS011;38154;47.548;18.828;2023-09-19T02:50:44;11.00;;;4.87;;
51238;SDS011;38154;47.548;18.828;2023-09-19T02:53:11;14.80;;;5.10;;
51238;SDS011;38154;47.548;18.828;2023-09-19T02:55:40;10.05;;;5.90;;
51238;SDS011;38154;47.548;18.828;2023-09-19T02:58:06;10.90;;;5.62;;
51238;SDS011;38154;47.548;18.828;2023-09-19T03:00:40;11.73;;;4.50;;
51238;SDS011;38154;47.548;18.828;2023-09-19T03:03:07;10.15;;;5.22;;
51238;SDS011;38154;47.548;18.828;2023-09-19T03:05:34;8.95;;;5.32;;
51238;SDS011;38154;47.548;18.828;2023-09-19T03:08:00;13.98;;;5.45;;
51238;SDS011;38154;47.548;18.828;2023-09-19T03:10:27;7.37;;;4.82;;
51238;SDS011;38154;47.548;18.828;2023-09-19T03:12:53;11.63;;;5.10;;
51238;SDS011;38154;47.548;18.828;2023-09-19T03:15:19;7.68;;;4.82;;
51238;SDS011;38154;47.548;18.828;2023-09-19T03:17:46;8.90;;;5.00;;
51238;SDS011;38154;47.548;18.828;2023-09-19T03:20:13;13.88;;;5.80;;
51238;SDS011;38154;47.548;18.828;2023-09-19T03:22:45;13.02;;;5.22;;
51238;SDS011;38154;47.548;18.828;2023-09-19T03:25:11;15.82;;;5.32;;
51238;SDS011;38154;47.548;18.828;2023-09-19T03:30:04;8.23;;;5.62;;
51238;SDS011;38154;47.548;18.828;2023-09-19T03:32:36;10.52;;;5.75;;
51238;SDS011;38154;47.548;18.828;2023-09-19T03:35:04;10.27;;;5.50;;
51238;SDS011;38154;47.548;18.828;2023-09-19T03:37:31;13.32;;;5.00;;
51238;SDS011;38154;47.548;18.828;2023-09-19T03:39:58;18.05;;;6.12;;
51238;SDS011;38154;47.548;18.828;2023-09-19T03:42:24;11.57;;;5.85;;
51238;SDS011;38154;47.548;18.828;2023-09-19T03:44:52;12.88;;;5.30;;
51238;SDS011;38154;47.548;18.828;2023-09-19T03:47:18;7.05;;;4.37;;
51238;SDS011;38154;47.548;18.828;2023-09-19T03:49:47;7.30;;;4.90;;
51238;SDS011;38154;47.548;18.828;2023-09-19T03:54:40;6.82;;;3.72;;
51238;SDS011;38154;47.548;18.828;2023-09-19T03:57:06;7.30;;;3.42;;
51238;SDS011;38154;47.548;18.828;2023-09-19T03:59:32;6.37;;;2.05;;
51238;SDS011;38154;47.548;18.828;2023-09-19T04:01:58;4.18;;;1.20;;
51238;SDS011;38154;47.548;18.828;2023-09-19T04:04:24;1.50;;;1.23;;
51238;SDS011;38154;47.548;18.828;2023-09-19T04:06:51;1.20;;;1.00;;
51238;SDS011;38154;47.548;18.828;2023-09-19T04:09:17;3.42;;;1.25;;
51238;SDS011;38154;47.548;18.828;2023-09-19T04:11:42;1.50;;;0.98;;
51238;SDS011;38154;47.548;18.828;2023-09-19T04:14:08;3.60;;;1.00;;
51238;SDS011;38154;47.548;18.828;2023-09-19T04:16:34;4.28;;;1.20;;
51238;SDS011;38154;47.548;18.828;2023-09-19T04:19:00;0.65;;;0.65;;
51238;SDS011;38154;47.548;18.828;2023-09-19T04:21:26;1.30;;;1.10;;
51238;SDS011;38154;47.548;18.828;2023-09-19T04:23:53;2.25;;;0.70;;
51238;SDS011;38154;47.548;18.828;2023-09-19T04:26:19;1.50;;;0.68;;
51238;SDS011;38154;47.548;18.828;2023-09-19T04:28:45;0.95;;;0.68;;
51238;SDS011;38154;47.548;18.828;2023-09-19T04:31:11;1.65;;;0.80;;
51238;SDS011;38154;47.548;18.828;2023-09-19T04:33:37;1.87;;;0.70;;
51238;SDS011;38154;47.548;18.828;2023-09-19T04:36:03;1.12;;;1.02;;
51238;SDS011;38154;47.548;18.828;2023-09-19T04:38:33;1.30;;;1.00;;
51238;SDS011;38154;47.548;18.828;2023-09-19T04:40:59;1.02;;;0.60;;
51238;SDS011;38154;47.548;18.828;2023-09-19T04:43:25;0.80;;;0.50;;
51238;SDS011;38154;47.548;18.828;2023-09-19T04:48:24;1.05;;;0.60;;
51238;SDS011;38154;47.548;18.828;2023-09-19T04:50:50;2.95;;;0.82;;
51238;SDS011;38154;47.548;18.828;2023-09-19T04:53:19;0.93;;;0.57;;
51238;SDS011;38154;47.548;18.828;2023-09-19T04:55:51;1.45;;;0.50;;
51238;SDS011;38154;47.548;18.828;2023-09-19T04:58:21;1.65;;;0.82;;
51238;SDS011;38154;47.548;18.828;2023-09-19T05:00:48;0.88;;;0.62;;
51238;SDS011;38154;47.548;18.828;2023-09-19T05:03:16;2.47;;;0.50;;
51238;SDS011;38154;47.548;18.828;2023-09-19T05:05:42;1.08;;;0.50;;
51238;SDS011;38154;47.548;18.828;2023-09-19T05:08:08;0.47;;;0.43;;
51238;SDS011;38154;47.548;18.828;2023-09-19T05:13:03;1.48;;;0.82;;
51238;SDS011;38154;47.548;18.828;2023-09-19T05:15:30;1.52;;;0.55;;
51238;SDS011;38154;47.548;18.828;2023-09-19T05:17:56;0.43;;;0.40;;
51238;SDS011;38154;47.548;18.828;2023-09-19T05:20:23;1.05;;;0.47;;
51238;SDS011;38154;47.548;18.828;2023-09-19T05:22:58;4.60;;;0.77;;
51238;SDS011;38154;47.548;18.828;2023-09-19T05:25:33;0.65;;;0.52;;
51238;SDS011;38154;47.548;18.828;2023-09-19T05:28:02;2.70;;;0.60;;
51238;SDS011;38154;47.548;18.828;2023-09-19T05:30:29;0.30;;;0.30;;
51238;SDS011;38154;47.548;18.828;2023-09-19T05:32:55;0.50;;;0.50;;
51238;SDS011;38154;47.548;18.828;2023-09-19T05:35:21;0.85;;;0.65;;
51238;SDS011;38154;47.548;18.828;2023-09-19T05:37:50;1.10;;;0.50;;
51238;SDS011;38154;47.548;18.828;2023-09-19T05:40:17;0.73;;;0.55;;
51238;SDS011;38154;47.548;18.828;2023-09-19T05:42:43;1.12;;;0.47;;
51238;SDS011;38154;47.548;18.828;2023-09-19T05:47:39;0.52;;;0.47;;
51238;SDS011;38154;47.548;18.828;2023-09-19T05:50:12;0.50;;;0.50;;
51238;SDS011;38154;47.548;18.828;2023-09-19T05:52:38;1.25;;;0.62;;
51238;SDS011;38154;47.548;18.828;2023-09-19T05:55:05;1.55;;;0.98;;
51238;SDS011;38154;47.548;18.828;2023-09-19T05:57:33;0.55;;;0.30;;
51238;SDS011;38154;47.548;18.828;2023-09-19T05:59:59;0.70;;;0.60;;
51238;SDS011;38154;47.548;18.828;2023-09-19T06:02:25;2.08;;;0.80;;
51238;SDS011;38154;47.548;18.828;2023-09-19T06:04:54;1.55;;;0.60;;
51238;SDS011;38154;47.548;18.828;2023-09-19T06:07:21;0.85;;;0.52;;
51238;SDS011;38154;47.548;18.828;2023-09-19T06:09:51;1.40;;;0.88;;
51238;SDS011;38154;47.548;18.828;2023-09-19T06:12:19;1.37;;;0.80;;
51238;SDS011;38154;47.548;18.828;2023-09-19T06:14:45;1.20;;;0.62;;
51238;SDS011;38154;47.548;18.828;2023-09-19T06:17:11;0.65;;;0.60;;
51238;SDS011;38154;47.548;18.828;2023-09-19T06:19:37;0.45;;;0.43;;
51238;SDS011;38154;47.548;18.828;2023-09-19T06:22:03;0.65;;;0.65;;
51238;SDS011;38154;47.548;18.828;2023-09-19T06:24:29;2.35;;;0.52;;
51238;SDS011;38154;47.548;18.828;2023-09-19T06:26:56;0.43;;;0.40;;
51238;SDS011;38154;47.548;18.828;2023-09-19T06:29:22;0.60;;;0.60;;
51238;SDS011;38154;47.548;18.828;2023-09-19T06:31:50;0.70;;;0.60;;
51238;SDS011;38154;47.548;18.828;2023-09-19T06:34:16;0.75;;;0.70;;
51238;SDS011;38154;47.548;18.828;2023-09-19T06:36:44;1.17;;;0.70;;
51238;SDS011;38154;47.548;18.828;2023-09-19T06:39:10;0.73;;;0.52;;
51238;SDS011;38154;47.548;18.828;2023-09-19T06:41:37;0.40;;;0.40;;
51238;SDS011;38154;47.548;18.828;2023-09-19T06:44:04;1.85;;;0.77;;
51238;SDS011;38154;47.548;18.828;2023-09-19T06:46:31;1.60;;;0.77;;
51238;SDS011;38154;47.548;18.828;2023-09-19T06:49:03;0.32;;;0.30;;
51238;SDS011;38154;47.548;18.828;2023-09-19T06:51:32;0.80;;;0.50;;
51238;SDS011;38154;47.548;18.828;2023-09-19T06:54:01;1.27;;;0.60;;
51238;SDS011;38154;47.548;18.828;2023-09-19T06:56:27;1.02;;;0.70;;
51238;SDS011;38154;47.548;18.828;2023-09-19T06:58:53;1.45;;;0.57;;
51238;SDS011;38154;47.548;18.828;2023-09-19T07:01:19;0.50;;;0.50;;
51238;SDS011;38154;47.548;18.828;2023-09-19T07:03:45;0.30;;;0.30;;
51238;SDS011;38154;47.548;18.828;2023-09-19T07:08:37;0.80;;;0.68;;
51238;SDS011;38154;47.548;18.828;2023-09-19T07:11:04;0.50;;;0.50;;
51238;SDS011;38154;47.548;18.828;2023-09-19T07:13:31;0.50;;;0.47;;
51238;SDS011;38154;47.548;18.828;2023-09-19T07:15:58;6.20;;;0.85;;
51238;SDS011;38154;47.548;18.828;2023-09-19T07:18:25;0.60;;;0.52;;
51238;SDS011;38154;47.548;18.828;2023-09-19T07:20:51;1.25;;;0.80;;
51238;SDS011;38154;47.548;18.828;2023-09-19T07:23:26;2.45;;;0.52;;
51238;SDS011;38154;47.548;18.828;2023-09-19T07:25:56;0.50;;;0.50;;
51238;SDS011;38154;47.548;18.828;2023-09-19T07:42:01;1.25;;;0.68;;
51238;SDS011;38154;47.548;18.828;2023-09-19T07:44:27;3.45;;;0.90;;
51238;SDS011;38154;47.548;18.828;2023-09-19T07:46:53;5.75;;;0.95;;
51238;SDS011;38154;47.548;18.828;2023-09-19T07:49:20;0.75;;;0.68;;
51238;SDS011;38154;47.548;18.828;2023-09-19T07:51:46;1.35;;;0.68;;
51238;SDS011;38154;47.548;18.828;2023-09-19T07:54:12;0.88;;;0.88;;
51238;SDS011;38154;47.548;18.828;2023-09-19T07:56:38;3.15;;;1.00;;
51238;SDS011;38154;47.548;18.828;2023-09-19T07:59:04;0.80;;;0.60;;
51238;SDS011;38154;47.548;18.828;2023-09-19T08:01:30;0.60;;;0.60;;
51238;SDS011;38154;47.548;18.828;2023-09-19T08:06:22;2.53;;;0.77;;
51238;SDS011;38154;47.548;18.828;2023-09-19T08:08:50;2.70;;;0.75;;
51238;SDS011;38154;47.548;18.828;2023-09-19T08:11:19;0.98;;;0.70;;
51238;SDS011;38154;47.548;18.828;2023-09-19T08:13:46;1.60;;;0.65;;
51238;SDS011;38154;47.548;18.828;2023-09-19T08:16:17;1.85;;;0.80;;
51238;SDS011;38154;47.548;18.828;2023-09-19T08:18:48;0.77;;;0.75;;
51238;SDS011;38154;47.548;18.828;2023-09-19T08:21:14;1.05;;;0.60;;
51238;SDS011;38154;47.548;18.828;2023-09-19T08:23:41;3.78;;;0.90;;
51238;SDS011;38154;47.548;18.828;2023-09-19T08:26:07;2.15;;;1.27;;
51238;SDS011;38154;47.548;18.828;2023-09-19T08:28:34;2.35;;;0.73;;
51238;SDS011;38154;47.548;18.828;2023-09-19T08:31:04;4.15;;;0.98;;
51238;SDS011;38154;47.548;18.828;2023-09-19T08:33:33;0.90;;;0.55;;
51238;SDS011;38154;47.548;18.828;2023-09-19T08:35:59;0.43;;;0.43;;
51238;SDS011;38154;47.548;18.828;2023-09-19T08:38:25;1.60;;;0.90;;
51238;SDS011;38154;47.548;18.828;2023-09-19T08:40:58;2.00;;;0.62;;
51238;SDS011;38154;47.548;18.828;2023-09-19T08:43:25;4.10;;;1.08;;
51238;SDS011;38154;47.548;18.828;2023-09-19T08:45:57;1.83;;;0.50;;
51238;SDS011;38154;47.548;18.828;2023-09-19T08:48:28;1.55;;;1.17;;
51238;SDS011;38154;47.548;18.828;2023-09-19T08:50:56;0.65;;;0.65;;
51238;SDS011;38154;47.548;18.828;2023-09-19T08:53:43;1.55;;;0.80;;
51238;SDS011;38154;47.548;18.828;2023-09-19T08:56:24;0.88;;;0.55;;
51238;SDS011;38154;47.548;18.828;2023-09-19T08:59:02;1.33;;;0.70;;
51238;SDS011;38154;47.548;18.828;2023-09-19T09:03:57;0.93;;;0.88;;
51238;SDS011;38154;47.548;18.828;2023-09-19T09:06:24;2.33;;;0.85;;
51238;SDS011;38154;47.548;18.828;2023-09-19T09:08:51;1.20;;;0.80;;
51238;SDS011;38154;47.548;18.828;2023-09-19T09:11:17;2.50;;;1.08;;
51238;SDS011;38154;47.548;18.828;2023-09-19T09:13:44;1.77;;;1.10;;
51238;SDS011;38154;47.548;18.828;2023-09-19T09:16:11;1.85;;;0.82;;
51238;SDS011;38154;47.548;18.828;2023-09-19T09:18:39;0.95;;;0.90;;
51238;SDS011;38154;47.548;18.828;2023-09-19T09:21:06;1.10;;;0.70;;
51238;SDS011;38154;47.548;18.828;2023-09-19T09:23:32;1.20;;;0.55;;
51238;SDS011;38154;47.548;18.828;2023-09-19T09:28:29;0.62;;;0.62;;
51238;SDS011;38154;47.548;18.828;2023-09-19T09:30:57;1.73;;;1.08;;
51238;SDS011;38154;47.548;18.828;2023-09-19T09:33:43;6.43;;;1.42;;
51238;SDS011;38154;47.548;18.828;2023-09-19T09:36:31;3.90;;;1.10;;
51238;SDS011;38154;47.548;18.828;2023-09-19T09:38:59;2.47;;;1.10;;
51238;SDS011;38154;47.548;18.828;2023-09-19T09:41:40;1.37;;;0.98;;
51238;SDS011;38154;47.548;18.828;2023-09-19T09:44:14;1.60;;;1.20;;
51238;SDS011;38154;47.548;18.828;2023-09-19T09:46:43;2.20;;;1.27;;
51238;SDS011;38154;47.548;18.828;2023-09-19T09:49:22;3.95;;;1.20;;
51238;SDS011;38154;47.548;18.828;2023-09-19T09:52:00;2.03;;;1.55;;
51238;SDS011;38154;47.548;18.828;2023-09-19T09:54:33;4.28;;;1.50;;
51238;SDS011;38154;47.548;18.828;2023-09-19T09:57:02;2.20;;;1.50;;
51238;SDS011;38154;47.548;18.828;2023-09-19T10:02:37;3.00;;;1.17;;
51238;SDS011;38154;47.548;18.828;2023-09-19T10:05:18;3.75;;;1.42;;
51238;SDS011;38154;47.548;18.828;2023-09-19T10:08:12;2.95;;;1.10;;
51238;SDS011;38154;47.548;18.828;2023-09-19T10:10:39;1.02;;;0.90;;
51238;SDS011;38154;47.548;18.828;2023-09-19T10:13:10;2.95;;;1.75;;
51238;SDS011;38154;47.548;18.828;2023-09-19T10:15:47;1.77;;;1.15;;
51238;SDS011;38154;47.548;18.828;2023-09-19T10:18:19;2.40;;;1.08;;
51238;SDS011;38154;47.548;18.828;2023-09-19T10:20:47;1.87;;;1.08;;
51238;SDS011;38154;47.548;18.828;2023-09-19T10:23:17;1.33;;;1.23;;
51238;SDS011;38154;47.548;18.828;2023-09-19T10:25:51;7.85;;;1.50;;
51238;SDS011;38154;47.548;18.828;2023-09-19T10:28:18;3.42;;;1.70;;
51238;SDS011;38154;47.548;18.828;2023-09-19T10:30:49;1.62;;;1.52;;
51238;SDS011;38154;47.548;18.828;2023-09-19T10:33:16;7.97;;;1.77;;
51238;SDS011;38154;47.548;18.828;2023-09-19T10:35:47;3.70;;;2.10;;
51238;SDS011;38154;47.548;18.828;2023-09-19T10:38:20;2.33;;;1.65;;
51238;SDS011;38154;47.548;18.828;2023-09-19T10:40:50;1.10;;;1.00;;
51238;SDS011;38154;47.548;18.828;2023-09-19T10:43:20;1.48;;;1.05;;
51238;SDS011;38154;47.548;18.828;2023-09-19T10:45:50;2.08;;;1.27;;
51238;SDS011;38154;47.548;18.828;2023-09-19T10:48:18;0.90;;;0.85;;
51238;SDS011;38154;47.548;18.828;2023-09-19T10:53:16;1.75;;;0.88;;
51238;SDS011;38154;47.548;18.828;2023-09-19T10:55:50;1.02;;;0.80;;
51238;SDS011;38154;47.548;18.828;2023-09-19T10:58:26;1.17;;;0.73;;
51238;SDS011;38154;47.548;18.828;2023-09-19T11:00:55;1.15;;;0.68;;
51238;SDS011;38154;47.548;18.828;2023-09-19T11:03:22;1.35;;;0.80;;
51238;SDS011;38154;47.548;18.828;2023-09-19T11:30:34;0.90;;;0.70;;
51238;SDS011;38154;47.548;18.828;2023-09-19T11:43:46;0.90;;;0.52;;
51238;SDS011;38154;47.548;18.828;2023-09-19T11:46:16;1.50;;;0.82;;
51238;SDS011;38154;47.548;18.828;2023-09-19T11:48:50;0.80;;;0.80;;
51238;SDS011;38154;47.548;18.828;2023-09-19T11:51:24;2.15;;;1.00;;
51238;SDS011;38154;47.548;18.828;2023-09-19T11:53:57;1.92;;;1.10;;
51238;SDS011;38154;47.548;18.828;2023-09-19T11:56:25;2.42;;;1.20;;
51238;SDS011;38154;47.548;18.828;2023-09-19T11:58:57;1.50;;;1.05;;
51238;SDS011;38154;47.548;18.828;2023-09-19T12:01:29;0.90;;;0.90;;
51238;SDS011;38154;47.548;18.828;2023-09-19T12:03:57;1.77;;;1.20;;
51238;SDS011;38154;47.548;18.828;2023-09-19T12:06:25;2.00;;;0.95;;
51238;SDS011;38154;47.548;18.828;2023-09-19T12:08:57;2.17;;;1.20;;
51238;SDS011;38154;47.548;18.828;2023-09-19T12:11:33;2.72;;;0.90;;
51238;SDS011;38154;47.548;18.828;2023-09-19T12:14:20;1.17;;;0.80;;
51238;SDS011;38154;47.548;18.828;2023-09-19T12:16:51;2.77;;;1.20;;
51238;SDS011;38154;47.548;18.828;2023-09-19T12:19:21;1.20;;;1.00;;
51238;SDS011;38154;47.548;18.828;2023-09-19T12:22:01;1.83;;;1.10;;
51238;SDS011;38154;47.548;18.828;2023-09-19T12:24:32;1.52;;;0.98;;
51238;SDS011;38154;47.548;18.828;2023-09-19T12:27:02;1.52;;;0.85;;
51238;SDS011;38154;47.548;18.828;2023-09-19T12:29:31;2.92;;;1.15;;
51238;SDS011;38154;47.548;18.828;2023-09-19T12:31:59;2.40;;;1.45;;
51238;SDS011;38154;47.548;18.828;2023-09-19T12:34:30;5.25;;;1.02;;
51238;SDS011;38154;47.548;18.828;2023-09-19T12:37:10;0.90;;;0.68;;
51238;SDS011;38154;47.548;18.828;2023-09-19T12:39:40;0.98;;;0.80;;
51238;SDS011;38154;47.548;18.828;2023-09-19T12:42:17;1.98;;;0.80;;
51238;SDS011;38154;47.548;18.828;2023-09-19T12:44:49;1.45;;;0.80;;
51238;SDS011;38154;47.548;18.828;2023-09-19T12:47:23;3.58;;;1.15;;
51238;SDS011;38154;47.548;18.828;2023-09-19T12:52:38;1.90;;;1.10;;
51238;SDS011;38154;47.548;18.828;2023-09-19T12:55:05;4.43;;;0.80;;
51238;SDS011;38154;47.548;18.828;2023-09-19T12:57:36;0.82;;;0.62;;
51238;SDS011;38154;47.548;18.828;2023-09-19T13:00:02;1.25;;;0.90;;
51238;SDS011;38154;47.548;18.828;2023-09-19T13:02:31;1.98;;;0.90;;
51238;SDS011;38154;47.548;18.828;2023-09-19T13:04:58;1.98;;;1.12;;
51238;SDS011;38154;47.548;18.828;2023-09-19T13:07:41;1.20;;;0.77;;
51238;SDS011;38154;47.548;18.828;2023-09-19T13:10:15;1.57;;;1.00;;
51238;SDS011;38154;47.548;18.828;2023-09-19T13:12:42;0.80;;;0.80;;
51238;SDS011;38154;47.548;18.828;2023-09-19T13:15:13;13.10;;;2.55;;
51238;SDS011;38154;47.548;18.828;2023-09-19T13:17:46;1.60;;;0.80;;
51238;SDS011;38154;47.548;18.828;2023-09-19T13:20:26;1.42;;;0.70;;
51238;SDS011;38154;47.548;18.828;2023-09-19T13:22:53;0.70;;;0.70;;
51238;SDS011;38154;47.548;18.828;2023-09-19T13:25:25;1.42;;;1.00;;
51238;SDS011;38154;47.548;18.828;2023-09-19T13:27:58;2.25;;;1.05;;
51238;SDS011;38154;47.548;18.828;2023-09-19T13:30:26;2.35;;;1.25;;
51238;SDS011;38154;47.548;18.828;2023-09-19T13:33:04;3.12;;;1.27;;
51238;SDS011;38154;47.548;18.828;2023-09-19T13:35:35;1.70;;;1.10;;
51238;SDS011;38154;47.548;18.828;2023-09-19T13:38:04;2.05;;;0.93;;
51238;SDS011;38154;47.548;18.828;2023-09-19T13:40:29;2.00;;;0.90;;
51238;SDS011;38154;47.548;18.828;2023-09-19T13:43:00;1.83;;;1.10;;
51238;SDS011;38154;47.548;18.828;2023-09-19T13:47:56;2.60;;;1.17;;
51238;SDS011;38154;47.548;18.828;2023-09-19T13:50:24;1.00;;;0.80;;
51238;SDS011;38154;47.548;18.828;2023-09-19T13:52:51;1.00;;;0.90;;
51238;SDS011;38154;47.548;18.828;2023-09-19T13:57:46;2.50;;;1.02;;
51238;SDS011;38154;47.548;18.828;2023-09-19T14:00:16;2.22;;;0.82;;
51238;SDS011;38154;47.548;18.828;2023-09-19T14:02:43;5.30;;;0.90;;
51238;SDS011;38154;47.548;18.828;2023-09-19T14:05:10;1.83;;;0.88;;
51238;SDS011;38154;47.548;18.828;2023-09-19T14:07:41;1.02;;;0.73;;
51238;SDS011;38154;47.548;18.828;2023-09-19T14:10:07;3.42;;;1.20;;
51238;SDS011;38154;47.548;18.828;2023-09-19T14:12:34;1.77;;;1.05;;
51238;SDS011;38154;47.548;18.828;2023-09-19T14:15:00;0.85;;;0.85;;
51238;SDS011;38154;47.548;18.828;2023-09-19T14:17:26;1.08;;;0.88;;
51238;SDS011;38154;47.548;18.828;2023-09-19T14:19:52;1.20;;;0.85;;
51238;SDS011;38154;47.548;18.828;2023-09-19T14:22:18;1.25;;;0.90;;
51238;SDS011;38154;47.548;18.828;2023-09-19T14:24:44;2.92;;;1.00;;
51238;SDS011;38154;47.548;18.828;2023-09-19T14:27:10;0.77;;;0.68;;
51238;SDS011;38154;47.548;18.828;2023-09-19T14:32:02;1.92;;;1.02;;
51238;SDS011;38154;47.548;18.828;2023-09-19T14:36:54;2.40;;;0.90;;
51238;SDS011;38154;47.548;18.828;2023-09-19T14:39:20;1.50;;;1.05;;
51238;SDS011;38154;47.548;18.828;2023-09-19T14:41:45;1.62;;;1.20;;
51238;SDS011;38154;47.548;18.828;2023-09-19T14:44:11;1.05;;;0.95;;
51238;SDS011;38154;47.548;18.828;2023-09-19T14:46:38;0.90;;;0.57;;
51238;SDS011;38154;47.548;18.828;2023-09-19T14:51:31;1.47;;;1.17;;
51238;SDS011;38154;47.548;18.828;2023-09-19T14:53:57;2.37;;;1.02;;
51238;SDS011;38154;47.548;18.828;2023-09-19T14:58:51;1.10;;;0.65;;
51238;SDS011;38154;47.548;18.828;2023-09-19T15:01:17;1.85;;;0.80;;
51238;SDS011;38154;47.548;18.828;2023-09-19T15:03:43;1.00;;;0.80;;
51238;SDS011;38154;47.548;18.828;2023-09-19T15:06:10;0.98;;;0.77;;
51238;SDS011;38154;47.548;18.828;2023-09-19T15:08:43;1.00;;;0.77;;
51238;SDS011;38154;47.548;18.828;2023-09-19T15:11:13;0.90;;;0.70;;
51238;SDS011;38154;47.548;18.828;2023-09-19T15:13:42;1.02;;;0.65;;
51238;SDS011;38154;47.548;18.828;2023-09-19T15:16:09;1.20;;;0.90;;
51238;SDS011;38154;47.548;18.828;2023-09-19T15:21:06;0.88;;;0.80;;
51238;SDS011;38154;47.548;18.828;2023-09-19T15:23:33;1.42;;;1.02;;
51238;SDS011;38154;47.548;18.828;2023-09-19T15:26:00;4.90;;;0.80;;
51238;SDS011;38154;47.548;18.828;2023-09-19T15:28:29;0.90;;;0.88;;
51238;SDS011;38154;47.548;18.828;2023-09-19T15:31:12;1.90;;;0.90;;
51238;SDS011;38154;47.548;18.828;2023-09-19T15:33:38;0.80;;;0.80;;
51238;SDS011;38154;47.548;18.828;2023-09-19T15:36:05;1.05;;;0.70;;
51238;SDS011;38154;47.548;18.828;2023-09-19T15:41:32;1.52;;;1.42;;
51238;SDS011;38154;47.548;18.828;2023-09-19T15:44:00;1.50;;;0.93;;
51238;SDS011;38154;47.548;18.828;2023-09-19T15:46:27;1.37;;;1.00;;
51238;SDS011;38154;47.548;18.828;2023-09-19T15:48:55;1.05;;;0.95;;
51238;SDS011;38154;47.548;18.828;2023-09-19T15:51:21;1.55;;;0.85;;
51238;SDS011;38154;47.548;18.828;2023-09-19T15:53:48;2.05;;;0.80;;
51238;SDS011;38154;47.548;18.828;2023-09-19T15:56:16;1.00;;;0.68;;
51238;SDS011;38154;47.548;18.828;2023-09-19T15:58:45;1.05;;;0.70;;
51238;SDS011;38154;47.548;18.828;2023-09-19T16:01:12;1.73;;;0.70;;
51238;SDS011;38154;47.548;18.828;2023-09-19T16:03:39;0.70;;;0.70;;
51238;SDS011;38154;47.548;18.828;2023-09-19T16:06:12;1.15;;;0.80;;
51238;SDS011;38154;47.548;18.828;2023-09-19T16:08:40;2.47;;;1.30;;
51238;SDS011;38154;47.548;18.828;2023-09-19T16:11:07;1.20;;;1.00;;
51238;SDS011;38154;47.548;18.828;2023-09-19T16:13:33;1.95;;;1.25;;
51238;SDS011;38154;47.548;18.828;2023-09-19T16:15:59;1.00;;;0.80;;
51238;SDS011;38154;47.548;18.828;2023-09-19T16:18:25;1.67;;;0.85;;
51238;SDS011;38154;47.548;18.828;2023-09-19T16:23:17;1.02;;;0.90;;
51238;SDS011;38154;47.548;18.828;2023-09-19T16:25:44;1.12;;;0.93;;
51238;SDS011;38154;47.548;18.828;2023-09-19T16:28:11;2.28;;;1.08;;
51238;SDS011;38154;47.548;18.828;2023-09-19T16:30:37;3.90;;;1.02;;
51238;SDS011;38154;47.548;18.828;2023-09-19T16:33:04;7.50;;;1.33;;
51238;SDS011;38154;47.548;18.828;2023-09-19T16:35:31;1.75;;;1.10;;
51238;SDS011;38154;47.548;18.828;2023-09-19T16:38:03;2.22;;;1.00;;
51238;SDS011;38154;47.548;18.828;2023-09-19T16:40:29;2.03;;;0.95;;
51238;SDS011;38154;47.548;18.828;2023-09-19T16:42:55;1.23;;;1.00;;
51238;SDS011;38154;47.548;18.828;2023-09-19T16:45:21;1.23;;;0.85;;
51238;SDS011;38154;47.548;18.828;2023-09-19T16:47:47;0.88;;;0.77;;
51238;SDS011;38154;47.548;18.828;2023-09-19T16:50:13;1.67;;;1.10;;
51238;SDS011;38154;47.548;18.828;2023-09-19T16:52:39;2.10;;;1.27;;